| time (UTC) | temp F | wind direction | speed knots | gust knots | rain 1hr in | rain 24hr in | rain mn in | humidity % | barometer mb |
| 20260906051814 | 66 | 80 | 6.1 | 0.0 | 0.00 | 0.00 | 0.00 | 64 | 1019.0 |
| 20260906050429 | 66 | 80 | 6.1 | 0.0 | 0.00 | 0.00 | 0.00 | 64 | |
| 20260906044929 | 64 | 90 | 6.1 | 0.0 | 0.00 | 0.00 | 0.00 | 64 | 1019.0 |
| 20260906043418 | 64 | 70 | 6.1 | 0.0 | 0.00 | 0.00 | 0.00 | 64 | 1018.0 |
| 20260906041930 | 64 | 70 | 6.1 | 0.0 | 0.00 | 0.00 | 0.00 | 64 | 1018.0 |
| 20260906040334 | 64 | 70 | 6.1 | 0.0 | 0.00 | 0.00 | 0.00 | 64 | 1018.0 |
| 20260906034829 | 64 | 80 | 8.7 | 0.0 | 0.00 | 0.00 | 0.00 | 64 | 1018.0 |
| 20260906033430 | 66 | 60 | 7.8 | 0.0 | 0.00 | 0.00 | 0.00 | 64 | 1018.0 |
| 20260906031929 | 66 | 60 | 7.8 | 0.0 | 0.00 | 0.00 | 0.00 | 64 | 1018.0 |
| 20260906030429 | 66 | 60 | 7.8 | 0.0 | 0.00 | 0.00 | 0.00 | 64 | 1018.0 |
| 20260906024841 | 66 | 70 | 9.6 | 0.0 | 0.00 | 0.00 | 0.00 | 64 | 1017.0 |
| 20260906023314 | 66 | 70 | 9.6 | 0.0 | 0.00 | 0.00 | 0.00 | 64 | 1017.0 |
| 20260906021821 | 66 | 70 | 9.6 | 0.0 | 0.00 | 0.00 | 0.00 | 68 | 1017.0 |
| 20260906020315 | 66 | 70 | 9.6 | 0.0 | 0.00 | 0.00 | 0.00 | 68 | 1017.0 |
| 20260906014815 | 68 | 70 | 8.7 | 0.0 | 0.00 | 0.00 | 0.00 | 69 | 1016.0 |
| 20260906013429 | 68 | 70 | 8.7 | 0.0 | 0.00 | 0.00 | 0.00 | 69 | 1016.0 |
| 20260906011814 | 68 | 60 | 11.3 | 0.0 | 0.00 | 0.00 | 0.00 | 64 | 1016.0 |
| 20260906010314 | 68 | 60 | 11.3 | 0.0 | 0.00 | 0.00 | 0.00 | 64 | 1016.0 |
| 20260906004930 | 70 | 70 | 12.2 | 0.0 | 0.00 | 0.00 | 0.00 | 60 | 1015.0 |
| 20260906003440 | 70 | 70 | 12.2 | 0.0 | 0.00 | 0.00 | 0.00 | 60 | 1015.0 |
| 20260906001929 | 70 | 70 | 11.3 | 0.0 | 0.00 | 0.00 | 0.00 | 60 | 1015.0 |
| 20260906000419 | 70 | 70 | 11.3 | 0.0 | 0.00 | 0.00 | 0.00 | 60 | 1015.0 |
| 20260905234824 | 70 | 80 | 8.7 | 0.0 | 0.00 | 0.00 | 0.00 | 64 | 1015.0 |
| 20260905233314 | 70 | 80 | 8.7 | 0.0 | 0.00 | 0.00 | 0.00 | 64 | 1015.0 |
| 20260905231930 | 70 | 70 | 9.6 | 0.0 | 0.00 | 0.00 | 0.00 | 64 | 1015.0 |
| 20260905230346 | 70 | 70 | 9.6 | 0.0 | 0.00 | 0.00 | 0.00 | 64 | 1015.0 |
| 20260905224930 | 73 | 30 | 2.6 | 0.0 | 0.00 | 0.00 | 0.00 | 57 | 1015.0 |
| 20260905223328 | 73 | 30 | 2.6 | 0.0 | 0.00 | 0.00 | 0.00 | 57 | 1015.0 |
| 20260905221915 | 72 | 1.7 | 0.0 | 0.00 | 0.00 | 0.00 | 57 | 1014.0 | |
| 20260905220430 | 72 | 1.7 | 0.0 | 0.00 | 0.00 | 0.00 | 57 | 1014.0 | |
| 20260905214929 | 72 | 0.9 | 0.0 | 0.00 | 0.00 | 0.00 | 65 | 1014.0 | |
| 20260905213314 | 72 | 0.9 | 0.0 | 0.00 | 0.00 | 0.00 | 65 | 1014.0 | |
| 20260905211814 | 72 | 270 | 1.7 | 0.0 | 0.00 | 0.00 | 0.00 | 65 | 1014.0 |
| 20260905210314 | 72 | 270 | 1.7 | 0.0 | 0.00 | 0.00 | 0.00 | 65 | 1014.0 |
| 20260905204824 | 72 | 290 | 0.9 | 0.0 | 0.00 | 0.00 | 0.00 | 65 | 1014.0 |
| 20260905203314 | 72 | 290 | 0.9 | 0.0 | 0.00 | 0.00 | 0.00 | 65 | 1014.0 |
| 20260905201814 | 72 | 280 | 0.9 | 0.0 | 0.00 | 0.00 | 0.00 | 65 | 1014.0 |
| 20260905200430 | 72 | 280 | 0.9 | 0.0 | 0.00 | 0.00 | 0.00 | 65 | 1014.0 |
| 20260905194921 | 73 | 0 | 0.0 | 0.0 | 0.00 | 0.00 | 0.00 | 61 | 1014.0 |
| 20260905193314 | 73 | 0 | 0.0 | 0.0 | 0.00 | 0.00 | 0.00 | 61 | 1014.0 |
| 20260905191843 | 77 | 0 | 0.0 | 0.0 | 0.00 | 0.00 | 0.00 | 47 | 1014.0 |
| 20260905190315 | 77 | 0 | 0.0 | 0.0 | 0.00 | 0.00 | 0.00 | 47 | 1014.0 |
| 20260905184815 | 77 | 0 | 0.0 | 0.0 | 0.00 | 0.00 | 0.00 | 51 | 1014.0 |
| 20260905183319 | 77 | 0 | 0.0 | 0.0 | 0.00 | 0.00 | 0.00 | 51 | 1014.0 |
| 20260905181814 | 81 | 0 | 0.0 | 0.0 | 0.00 | 0.00 | 0.00 | 45 | 1014.0 |
| 20260905180314 | 81 | 0 | 0.0 | 0.0 | 0.00 | 0.00 | 0.00 | 45 | 1014.0 |
| 20260905174814 | 82 | 230 | 1.7 | 0.0 | 0.00 | 0.00 | 0.00 | 40 | 1014.0 |
| 20260905173314 | 82 | 230 | 1.7 | 0.0 | 0.00 | 0.00 | 0.00 | 40 | 1014.0 |
| 20260905171825 | 84 | 210 | 2.6 | 0.0 | 0.00 | 0.00 | 0.00 | 37 | 1013.0 |
| 20260905170314 | 84 | 210 | 2.6 | 0.0 | 0.00 | 0.00 | 0.00 | 37 | 1013.0 |
| 20260905164814 | 88 | 260 | 2.6 | 0.0 | 0.00 | 0.00 | 0.00 | 31 | 1013.0 |
| 20260905163315 | 88 | 260 | 2.6 | 0.0 | 0.00 | 0.00 | 0.00 | 31 | 1013.0 |
| 20260905161815 | 90 | 280 | 5.2 | 0.0 | 0.00 | 0.00 | 0.00 | 29 | 1013.0 |
| 20260905160315 | 90 | 280 | 5.2 | 0.0 | 0.00 | 0.00 | 0.00 | 29 | 1013.0 |
| 20260905154831 | 90 | 270 | 4.3 | 0.0 | 0.00 | 0.00 | 0.00 | 29 | 1014.0 |
| 20260905153314 | 90 | 270 | 4.3 | 0.0 | 0.00 | 0.00 | 0.00 | 29 | 1014.0 |
| 20260905151815 | 91 | 280 | 4.3 | 0.0 | 0.00 | 0.00 | 0.00 | 28 | 1014.0 |
| 20260905150315 | 91 | 280 | 4.3 | 0.0 | 0.00 | 0.00 | 0.00 | 28 | 1014.0 |
| 20260905144814 | 91 | 260 | 7.0 | 0.0 | 0.00 | 0.00 | 0.00 | 28 | 1014.0 |
| 20260905143314 | 91 | 260 | 7.0 | 0.0 | 0.00 | 0.00 | 0.00 | 28 | 1014.0 |
| 20260905141815 | 91 | 260 | 7.0 | 0.0 | 0.00 | 0.00 | 0.00 | 28 | 1014.0 |
| 20260905140314 | 91 | 260 | 7.0 | 0.0 | 0.00 | 0.00 | 0.00 | 28 | 1014.0 |
| 20260905134927 | 91 | 250 | 7.0 | 0.0 | 0.00 | 0.00 | 0.00 | 28 | 1014.0 |
| 20260905133314 | 91 | 250 | 7.0 | 0.0 | 0.00 | 0.00 | 0.00 | 28 | 1014.0 |
| 20260905131817 | 91 | 260 | 8.7 | 0.0 | 0.00 | 0.00 | 0.00 | 30 | 1014.0 |
| 20260905130336 | 91 | 260 | 8.7 | 0.0 | 0.00 | 0.00 | 0.00 | 30 | 1014.0 |
| 20260905124815 | 90 | 260 | 8.7 | 0.0 | 0.00 | 0.00 | 0.00 | 29 | 1015.0 |
| 20260905123315 | 90 | 260 | 8.7 | 0.0 | 0.00 | 0.00 | 0.00 | 29 | 1015.0 |
| 20260905121842 | 90 | 240 | 8.7 | 0.0 | 0.00 | 0.00 | 0.00 | 29 | 1015.0 |
| 20260905120315 | 90 | 240 | 8.7 | 0.0 | 0.00 | 0.00 | 0.00 | 29 | 1015.0 |
| 20260905114814 | 90 | 260 | 7.0 | 0.0 | 0.00 | 0.00 | 0.00 | 29 | 1016.0 |
| 20260905113314 | 90 | 260 | 7.0 | 0.0 | 0.00 | 0.00 | 0.00 | 29 | 1016.0 |
| 20260905111833 | 88 | 260 | 7.8 | 0.0 | 0.00 | 0.00 | 0.00 | 31 | 1016.0 |
| 20260905110314 | 88 | 260 | 7.8 | 0.0 | 0.00 | 0.00 | 0.00 | 31 | 1016.0 |
| 20260905104814 | 88 | 270 | 8.7 | 0.0 | 0.00 | 0.00 | 0.00 | 33 | 1016.0 |
| 20260905103314 | 88 | 270 | 8.7 | 0.0 | 0.00 | 0.00 | 0.00 | 33 | 1016.0 |
| 20260905101814 | 86 | 260 | 7.8 | 0.0 | 0.00 | 0.00 | 0.00 | 33 | 1016.0 |
| 20260905100315 | 86 | 260 | 7.8 | 0.0 | 0.00 | 0.00 | 0.00 | 33 | 1016.0 |
| 20260905094930 | 86 | 280 | 7.0 | 0.0 | 0.00 | 0.00 | 0.00 | 33 | 1016.0 |
| 20260905093314 | 86 | 280 | 7.0 | 0.0 | 0.00 | 0.00 | 0.00 | 33 | 1016.0 |
| 20260905091814 | 84 | 280 | 7.0 | 0.0 | 0.00 | 0.00 | 0.00 | 37 | 1016.0 |
| 20260905090314 | 84 | 280 | 7.0 | 0.0 | 0.00 | 0.00 | 0.00 | 37 | 1016.0 |
| 20260905084814 | 82 | 280 | 6.1 | 0.0 | 0.00 | 0.00 | 0.00 | 42 | 1017.0 |
| 20260905083314 | 82 | 280 | 6.1 | 0.0 | 0.00 | 0.00 | 0.00 | 42 | 1017.0 |
| 20260905081814 | 81 | 260 | 7.0 | 0.0 | 0.00 | 0.00 | 0.00 | 45 | 1017.0 |
| 20260905080315 | 81 | 260 | 7.0 | 0.0 | 0.00 | 0.00 | 0.00 | 45 | 1017.0 |
| 20260905074814 | 77 | 5.2 | 0.0 | 0.00 | 0.00 | 0.00 | 47 | 1017.0 | |
| 20260905073323 | 77 | 5.2 | 0.0 | 0.00 | 0.00 | 0.00 | 47 | 1017.0 | |
| 20260905071815 | 73 | 270 | 6.1 | 0.0 | 0.00 | 0.00 | 0.00 | 57 | 1017.0 |
| 20260905070314 | 73 | 270 | 6.1 | 0.0 | 0.00 | 0.00 | 0.00 | 57 | 1017.0 |
| 20260905064815 | 72 | 270 | 6.1 | 0.0 | 0.00 | 0.00 | 0.00 | 61 | 1017.0 |
| 20260905063315 | 72 | 270 | 6.1 | 0.0 | 0.00 | 0.00 | 0.00 | 61 | 1017.0 |
| 20260905061815 | 68 | 270 | 4.3 | 0.0 | 0.00 | 0.00 | 0.00 | 69 | 1016.0 |
| 20260905060315 | 68 | 270 | 4.3 | 0.0 | 0.00 | 0.00 | 0.00 | 69 | 1016.0 |
| 20260905054815 | 66 | 280 | 2.6 | 0.0 | 0.00 | 0.00 | 0.00 | 73 | 1016.0 |
| 20260905053315 | 66 | 280 | 2.6 | 0.0 | 0.00 | 0.00 | 0.00 | 73 | 1016.0 |